createdAt,value
2023-04-18T00:01:09.922Z,3.15
2023-04-18T00:03:38.997Z,9.30
2023-04-18T00:06:06.899Z,2.60
2023-04-18T00:08:34.394Z,5.22
2023-04-18T00:11:01.629Z,5.25
2023-04-18T00:13:28.996Z,2.80
2023-04-18T00:15:56.786Z,7.68
2023-04-18T00:18:26.694Z,5.60
2023-04-18T00:20:54.300Z,5.03
2023-04-18T00:23:22.333Z,5.85
2023-04-18T00:25:49.550Z,5.38
2023-04-18T00:28:16.793Z,3.63
2023-04-18T00:30:44.044Z,5.80
2023-04-18T00:33:11.404Z,2.65
2023-04-18T00:35:38.628Z,3.70
2023-04-18T00:38:05.869Z,6.18
2023-04-18T00:40:33.480Z,3.85
2023-04-18T00:43:00.717Z,3.30
2023-04-18T00:45:28.026Z,5.82
2023-04-18T00:47:56.018Z,4.50
2023-04-18T00:50:23.984Z,9.70
2023-04-18T00:52:52.014Z,5.50
2023-04-18T00:55:19.406Z,4.45
2023-04-18T00:57:46.684Z,4.10
2023-04-18T01:00:15.136Z,3.53
2023-04-18T01:02:42.889Z,5.47
2023-04-18T01:05:10.302Z,6.82
2023-04-18T01:07:38.313Z,5.00
2023-04-18T01:10:06.037Z,15.50
2023-04-18T01:12:33.541Z,8.63
2023-04-18T01:15:00.869Z,7.22
2023-04-18T01:17:28.499Z,3.22
2023-04-18T01:19:56.983Z,5.50
2023-04-18T01:22:24.235Z,6.00
2023-04-18T01:24:51.475Z,3.40
2023-04-18T01:27:18.727Z,6.43
2023-04-18T01:29:46.023Z,4.50
2023-04-18T01:32:13.369Z,8.30
2023-04-18T01:34:41.517Z,5.22
2023-04-18T01:37:08.788Z,3.40
2023-04-18T01:39:36.073Z,9.40
2023-04-18T01:42:03.611Z,7.10
2023-04-18T01:44:31.271Z,7.60
2023-04-18T01:46:58.543Z,6.30
2023-04-18T01:49:25.770Z,9.05
2023-04-18T01:51:52.963Z,7.03
2023-04-18T01:54:20.269Z,6.43
2023-04-18T01:56:47.584Z,7.95
2023-04-18T01:59:14.775Z,11.38
2023-04-18T02:01:42.810Z,6.80
2023-04-18T02:04:10.361Z,6.75
2023-04-18T02:06:37.999Z,10.60
2023-04-18T02:09:05.293Z,8.18
2023-04-18T02:11:32.768Z,6.32
2023-04-18T02:14:00.084Z,4.93
2023-04-18T02:16:27.409Z,6.25
2023-04-18T02:18:54.621Z,6.82
2023-04-18T02:21:22.682Z,13.38
2023-04-18T02:23:50.000Z,9.10
2023-04-18T02:26:17.271Z,6.50
2023-04-18T02:28:44.474Z,8.32
2023-04-18T02:31:14.849Z,8.43
2023-04-18T02:33:43.196Z,5.63
2023-04-18T02:36:10.727Z,7.50
2023-04-18T02:38:38.051Z,7.40
2023-04-18T02:41:05.383Z,3.78
2023-04-18T02:43:33.061Z,10.10
2023-04-18T02:46:00.353Z,3.92
2023-04-18T02:48:27.801Z,3.67
2023-04-18T02:51:03.300Z,4.40
2023-04-18T02:53:30.727Z,7.57
2023-04-18T02:55:58.460Z,6.28
2023-04-18T02:58:25.822Z,6.10
2023-04-18T03:00:53.683Z,5.97
2023-04-18T03:03:21.121Z,6.38
2023-04-18T03:05:48.517Z,8.20
2023-04-18T03:08:16.305Z,8.68
2023-04-18T03:10:43.790Z,8.10
2023-04-18T03:13:10.999Z,6.88
2023-04-18T03:15:38.300Z,15.10
2023-04-18T03:18:05.732Z,8.50
2023-04-18T03:20:32.996Z,9.15
2023-04-18T03:23:00.319Z,4.38
2023-04-18T03:25:27.610Z,7.63
2023-04-18T03:27:54.824Z,4.05
2023-04-18T03:30:22.125Z,8.38
2023-04-18T03:32:49.428Z,12.43
2023-04-18T03:35:16.719Z,11.95
2023-04-18T03:37:44.091Z,6.40
2023-04-18T03:40:11.909Z,10.85
2023-04-18T03:42:39.175Z,10.00
2023-04-18T03:45:06.875Z,7.55
2023-04-18T03:47:34.147Z,12.15
2023-04-18T03:50:01.428Z,8.80
2023-04-18T03:52:29.812Z,10.95
2023-04-18T03:54:57.404Z,10.20
2023-04-18T03:57:24.698Z,8.43
2023-04-18T03:59:51.975Z,10.32
2023-04-18T04:02:19.464Z,8.18
2023-04-18T04:04:47.032Z,10.00
2023-04-18T04:07:14.473Z,14.23
2023-04-18T04:09:41.911Z,11.15
2023-04-18T04:12:09.255Z,10.50
2023-04-18T04:14:37.209Z,6.72
2023-04-18T04:17:04.533Z,14.38
2023-04-18T04:19:31.785Z,11.30
2023-04-18T04:21:59.015Z,6.90
2023-04-18T04:24:26.280Z,11.13
2023-04-18T04:26:53.503Z,9.88
2023-04-18T04:29:21.606Z,12.48
2023-04-18T04:31:48.915Z,11.15
2023-04-18T04:34:16.972Z,11.20
2023-04-18T04:36:44.327Z,10.73
2023-04-18T04:39:11.758Z,6.05
2023-04-18T04:41:39.479Z,10.60
2023-04-18T04:44:07.158Z,6.15
2023-04-18T04:46:34.483Z,8.02
2023-04-18T04:49:01.710Z,12.18
2023-04-18T04:51:29.270Z,11.07
2023-04-18T04:53:56.560Z,12.07
2023-04-18T04:56:23.965Z,15.60
2023-04-18T04:58:51.386Z,17.27
2023-04-18T05:01:18.722Z,6.18
2023-04-18T05:03:46.183Z,14.45
2023-04-18T05:06:14.168Z,9.55
2023-04-18T05:08:41.588Z,18.95
2023-04-18T05:11:08.878Z,8.57
2023-04-18T05:13:36.125Z,15.85
2023-04-18T05:16:04.181Z,7.88
2023-04-18T05:18:33.006Z,16.05
2023-04-18T05:21:01.817Z,12.88
2023-04-18T05:23:29.329Z,19.25
2023-04-18T05:25:56.583Z,15.10
2023-04-18T05:28:25.700Z,15.95
2023-04-18T05:30:52.966Z,11.85
2023-04-18T05:33:20.550Z,24.15
2023-04-18T05:35:47.778Z,8.50
2023-04-18T05:38:15.968Z,15.95
2023-04-18T05:40:43.747Z,14.90
2023-04-18T05:43:11.163Z,24.00
2023-04-18T05:45:38.372Z,12.02
2023-04-18T05:48:05.673Z,17.95
2023-04-18T05:50:33.392Z,16.13
2023-04-18T05:53:01.249Z,12.25
2023-04-18T05:55:28.475Z,11.23
2023-04-18T05:57:55.791Z,12.73
2023-04-18T06:00:23.270Z,17.70
2023-04-18T06:02:50.897Z,14.68
2023-04-18T06:05:18.583Z,12.88
2023-04-18T06:07:46.026Z,10.32
2023-04-18T06:10:13.609Z,21.23
2023-04-18T06:12:40.906Z,16.10
2023-04-18T06:15:08.800Z,17.83
2023-04-18T06:17:36.240Z,10.32
2023-04-18T06:20:06.226Z,16.52
2023-04-18T06:22:36.778Z,13.73
2023-04-18T06:25:04.951Z,10.18
2023-04-18T06:27:32.472Z,20.55
2023-04-18T06:29:59.688Z,19.77
2023-04-18T06:32:27.019Z,16.48
2023-04-18T06:34:54.293Z,15.57
2023-04-18T06:37:21.527Z,13.20
2023-04-18T06:39:48.861Z,12.55
2023-04-18T06:42:16.416Z,11.77
2023-04-18T06:44:43.924Z,11.25
2023-04-18T06:47:11.242Z,18.85
2023-04-18T06:49:38.502Z,13.52
2023-04-18T06:52:05.995Z,15.05
2023-04-18T06:54:33.929Z,9.63
2023-04-18T06:57:03.468Z,17.13
2023-04-18T06:59:30.798Z,12.70
2023-04-18T07:01:58.101Z,7.97
2023-04-18T07:04:25.491Z,17.88
2023-04-18T07:06:52.888Z,15.15
2023-04-18T07:09:20.554Z,18.63
2023-04-18T07:11:47.843Z,22.45
2023-04-18T07:14:15.255Z,12.98
2023-04-18T07:16:42.615Z,24.75
2023-04-18T07:19:09.951Z,10.23
2023-04-18T07:21:40.237Z,9.55
2023-04-18T07:24:07.559Z,12.10
2023-04-18T07:26:35.016Z,14.20
2023-04-18T07:29:02.240Z,14.75
2023-04-18T07:31:31.307Z,17.10
2023-04-18T07:33:58.643Z,9.75
2023-04-18T07:36:26.455Z,15.82
2023-04-18T07:38:53.765Z,12.57
2023-04-18T07:41:21.329Z,14.07
2023-04-18T07:43:48.536Z,12.25
2023-04-18T07:46:15.917Z,19.65
2023-04-18T07:48:43.321Z,15.30
2023-04-18T07:51:11.390Z,14.90
2023-04-18T07:53:39.633Z,23.80
2023-04-18T07:56:07.058Z,13.68
2023-04-18T07:58:34.750Z,15.07
2023-04-18T08:01:02.758Z,18.65
2023-04-18T08:03:30.575Z,30.50
2023-04-18T08:05:58.229Z,24.92
2023-04-18T08:08:25.520Z,15.75
2023-04-18T08:10:53.362Z,15.57
2023-04-18T08:13:20.627Z,12.52
2023-04-18T08:15:48.144Z,23.48
2023-04-18T08:18:15.413Z,14.48
2023-04-18T08:20:42.681Z,12.02
2023-04-18T08:23:12.794Z,15.20
2023-04-18T08:25:40.904Z,11.02
2023-04-18T08:28:09.259Z,18.45
2023-04-18T08:30:36.624Z,18.17
2023-04-18T08:33:03.893Z,18.30
2023-04-18T08:35:31.185Z,11.52
2023-04-18T08:37:58.459Z,14.30
2023-04-18T08:40:25.795Z,13.52
2023-04-18T08:42:53.037Z,12.52
2023-04-18T08:45:20.895Z,14.13
2023-04-18T08:47:48.400Z,18.85
2023-04-18T08:50:17.274Z,10.95
2023-04-18T08:52:45.681Z,10.02
2023-04-18T08:55:12.898Z,12.80
2023-04-18T08:57:40.155Z,13.70
2023-04-18T09:00:11.227Z,12.50
2023-04-18T09:02:43.182Z,17.48
2023-04-18T09:05:12.289Z,16.67
2023-04-18T09:07:39.547Z,10.15
2023-04-18T09:10:07.387Z,19.92
2023-04-18T09:12:35.999Z,15.88
2023-04-18T09:15:13.305Z,11.55
2023-04-18T09:17:52.539Z,10.23
2023-04-18T09:20:43.726Z,18.45
2023-04-18T09:23:14.648Z,12.75
2023-04-18T09:25:44.402Z,9.15
2023-04-18T09:28:29.007Z,16.17
2023-04-18T09:30:57.558Z,11.02
2023-04-18T09:33:28.262Z,7.43
2023-04-18T09:35:56.592Z,11.60
2023-04-18T09:38:39.153Z,17.45
2023-04-18T09:41:10.703Z,12.43
2023-04-18T09:43:38.129Z,17.80
2023-04-18T09:46:05.461Z,15.20
2023-04-18T09:48:32.877Z,19.88
2023-04-18T09:51:06.208Z,10.43
2023-04-18T09:53:41.505Z,18.88
2023-04-18T09:56:12.853Z,13.32
2023-04-18T09:58:41.258Z,11.35
2023-04-18T10:01:08.632Z,19.67
2023-04-18T10:03:42.096Z,15.13
2023-04-18T10:06:09.372Z,12.13
2023-04-18T10:08:36.642Z,11.75
2023-04-18T10:11:03.959Z,10.85
2023-04-18T10:13:32.084Z,10.85
2023-04-18T10:15:59.338Z,13.55
2023-04-18T10:18:26.698Z,11.80
2023-04-18T10:21:01.220Z,16.95
2023-04-18T10:23:37.771Z,16.20
2023-04-18T10:26:06.239Z,16.77
2023-04-18T10:28:58.779Z,11.63
2023-04-18T10:31:27.477Z,14.45
2023-04-18T10:34:04.711Z,15.10
2023-04-18T10:37:05.861Z,16.55
2023-04-18T10:39:54.199Z,16.83
2023-04-18T10:42:46.894Z,14.27
2023-04-18T10:45:24.450Z,13.52
2023-04-18T10:47:51.720Z,13.18
2023-04-18T10:50:18.984Z,11.05
2023-04-18T10:52:46.538Z,13.98
2023-04-18T10:55:16.792Z,17.48
2023-04-18T10:57:48.195Z,17.75
2023-04-18T11:02:57.499Z,20.20
2023-04-18T11:05:28.578Z,19.00
2023-04-18T11:07:55.874Z,24.13
2023-04-18T11:10:25.452Z,18.20
2023-04-18T11:12:53.919Z,13.45
2023-04-18T11:15:22.664Z,13.32
2023-04-18T11:18:03.505Z,14.48
2023-04-18T11:20:38.374Z,16.08
2023-04-18T11:23:17.654Z,21.50
2023-04-18T11:25:45.020Z,17.30
2023-04-18T11:28:13.601Z,22.13
2023-04-18T11:30:41.590Z,23.17
2023-04-18T11:33:09.949Z,20.17
2023-04-18T11:35:46.703Z,17.08
2023-04-18T11:38:14.754Z,11.65
2023-04-18T11:40:48.673Z,17.42
2023-04-18T11:43:20.903Z,21.13
2023-04-18T11:45:54.852Z,13.85
2023-04-18T11:48:23.081Z,14.82
2023-04-18T11:50:50.649Z,12.30
2023-04-18T11:53:37.369Z,16.23
2023-04-18T11:56:05.549Z,14.13
2023-04-18T11:58:33.510Z,14.90
2023-04-18T12:01:18.095Z,12.52
2023-04-18T12:04:05.977Z,16.35
2023-04-18T12:06:53.681Z,12.20
2023-04-18T12:09:22.009Z,14.95
2023-04-18T12:12:02.860Z,18.88
2023-04-18T12:14:30.412Z,21.17
2023-04-18T12:16:57.644Z,15.02
2023-04-18T12:19:28.298Z,13.40
2023-04-18T12:22:06.579Z,22.27
2023-04-18T12:24:34.550Z,16.95
2023-04-18T12:27:01.961Z,20.30
2023-04-18T12:29:29.335Z,19.90
2023-04-18T12:31:56.672Z,17.17
2023-04-18T12:34:24.149Z,17.83
2023-04-18T12:36:52.365Z,11.27
2023-04-18T12:39:19.732Z,16.48
2023-04-18T12:41:49.065Z,17.90
2023-04-18T12:44:17.315Z,19.52
2023-04-18T12:46:44.609Z,19.13
2023-04-18T12:49:11.866Z,14.07
2023-04-18T12:51:39.801Z,12.90
2023-04-18T12:54:07.061Z,19.08
2023-04-18T12:56:34.293Z,13.50
2023-04-18T12:59:01.663Z,18.88
2023-04-18T13:01:29.534Z,14.07
2023-04-18T13:04:10.857Z,20.92
2023-04-18T13:06:39.539Z,11.55
2023-04-18T13:09:06.772Z,26.58
2023-04-18T13:11:34.117Z,21.75
2023-04-18T13:14:01.453Z,17.27
2023-04-18T13:16:28.866Z,17.50
2023-04-18T13:18:56.178Z,26.77
2023-04-18T13:21:25.198Z,12.68
2023-04-18T13:23:52.459Z,17.10
2023-04-18T13:26:20.662Z,26.10
2023-04-18T13:28:47.937Z,12.85
2023-04-18T13:31:16.954Z,9.50
2023-04-18T13:33:44.552Z,22.92
2023-04-18T13:36:11.818Z,18.02
2023-04-18T13:38:39.534Z,19.13
2023-04-18T13:41:12.671Z,12.75
2023-04-18T13:43:40.964Z,25.30
2023-04-18T13:46:08.261Z,13.05
2023-04-18T13:48:35.620Z,16.42
2023-04-18T13:51:03.097Z,17.10
2023-04-18T13:53:31.255Z,16.98
2023-04-18T13:55:59.162Z,19.45
2023-04-18T13:58:26.684Z,14.70
2023-04-18T14:00:54.023Z,24.67
2023-04-18T14:03:22.694Z,22.10
2023-04-18T14:05:50.163Z,19.13
2023-04-18T14:08:18.380Z,16.38
2023-04-18T14:10:45.587Z,22.17
2023-04-18T14:13:12.817Z,22.25
2023-04-18T14:15:40.163Z,16.02
2023-04-18T14:18:07.402Z,22.20
2023-04-18T14:20:34.805Z,21.65
2023-04-18T14:23:02.244Z,29.45
2023-04-18T14:25:29.723Z,16.75
2023-04-18T14:28:09.414Z,17.05
2023-04-18T14:30:40.114Z,14.02
2023-04-18T14:33:08.599Z,15.07
2023-04-18T14:35:37.219Z,14.85
2023-04-18T14:38:04.476Z,18.73
2023-04-18T14:40:33.052Z,21.27
2023-04-18T14:43:00.540Z,23.40
2023-04-18T14:45:27.990Z,30.23
2023-04-18T14:47:55.887Z,19.40
2023-04-18T14:50:23.263Z,18.08
2023-04-18T14:52:50.957Z,13.73
2023-04-18T14:55:20.076Z,12.30
2023-04-18T14:57:47.351Z,18.70
2023-04-18T15:00:15.563Z,15.55
2023-04-18T15:02:43.317Z,31.55
2023-04-18T15:05:12.416Z,15.00
2023-04-18T15:07:40.811Z,13.68
2023-04-18T15:10:08.586Z,11.57
2023-04-18T15:12:36.338Z,15.30
2023-04-18T15:15:03.921Z,17.40
2023-04-18T15:17:32.296Z,8.57
2023-04-18T15:19:59.751Z,13.43
2023-04-18T15:22:26.992Z,22.45
2023-04-18T15:24:54.278Z,13.00
2023-04-18T15:27:21.481Z,20.98
2023-04-18T15:29:48.774Z,21.00
2023-04-18T15:32:16.325Z,25.50
2023-04-18T15:34:43.632Z,16.30
2023-04-18T15:37:10.877Z,20.13
2023-04-18T15:39:38.800Z,17.80
2023-04-18T15:42:06.070Z,14.55
2023-04-18T15:44:33.387Z,17.30
2023-04-18T15:47:01.790Z,18.55
2023-04-18T15:49:29.424Z,15.52
2023-04-18T15:51:56.866Z,15.13
2023-04-18T15:54:24.147Z,12.38
2023-04-18T15:56:51.653Z,12.35
2023-04-18T15:59:18.891Z,11.05
2023-04-18T16:01:46.443Z,18.35
2023-04-18T16:04:14.501Z,13.70
2023-04-18T16:06:42.509Z,10.55
2023-04-18T16:09:10.208Z,17.25
2023-04-18T16:11:37.461Z,15.50
2023-04-18T16:14:04.662Z,19.70
2023-04-18T16:16:32.302Z,18.25
2023-04-18T16:18:59.735Z,14.32
2023-04-18T16:21:28.270Z,21.85
2023-04-18T16:23:55.474Z,15.20
2023-04-18T16:26:24.807Z,13.63
2023-04-18T16:28:52.104Z,17.80
2023-04-18T16:31:19.371Z,10.95
2023-04-18T16:33:46.730Z,7.93
2023-04-18T16:36:14.055Z,8.25
2023-04-18T16:38:41.420Z,11.20
2023-04-18T16:41:09.444Z,21.23
2023-04-18T16:43:37.897Z,15.02
2023-04-18T16:46:05.618Z,14.60
2023-04-18T16:48:33.232Z,12.48
2023-04-18T16:51:00.690Z,12.13
2023-04-18T16:53:28.157Z,15.68
2023-04-18T16:55:55.835Z,16.15
2023-04-18T16:58:23.661Z,12.75
2023-04-18T17:00:51.087Z,14.68
2023-04-18T17:03:18.556Z,12.50
2023-04-18T17:05:46.508Z,11.30
2023-04-18T17:08:13.735Z,9.85
2023-04-18T17:10:41.062Z,6.45
2023-04-18T17:13:08.276Z,10.93
2023-04-18T17:15:36.557Z,11.90
2023-04-18T17:18:03.956Z,8.77
2023-04-18T17:20:31.397Z,11.38
2023-04-18T17:22:58.702Z,10.10
2023-04-18T17:25:25.929Z,11.10
2023-04-18T17:27:53.226Z,15.75
2023-04-18T17:30:20.753Z,9.10
2023-04-18T17:32:49.226Z,8.15
2023-04-18T17:35:16.760Z,9.30
2023-04-18T17:37:44.038Z,10.30
2023-04-18T17:40:11.992Z,13.40
2023-04-18T17:42:39.429Z,9.00
2023-04-18T17:45:07.680Z,16.50
2023-04-18T17:47:36.462Z,9.63
2023-04-18T17:50:04.319Z,11.50
2023-04-18T17:52:31.933Z,10.00
2023-04-18T17:54:59.465Z,13.05
2023-04-18T17:57:26.804Z,12.32
2023-04-18T17:59:54.140Z,10.23
2023-04-18T18:02:23.283Z,13.57
2023-04-18T18:04:51.556Z,10.80
2023-04-18T18:07:18.895Z,10.32
2023-04-18T18:09:46.450Z,8.23
2023-04-18T18:12:13.776Z,13.32
2023-04-18T18:14:41.058Z,8.10
2023-04-18T18:17:08.305Z,11.45
2023-04-18T18:19:36.535Z,12.23
2023-04-18T18:22:03.896Z,7.95
2023-04-18T18:24:31.483Z,10.20
2023-04-18T18:26:59.015Z,11.27
2023-04-18T18:29:26.320Z,8.30
2023-04-18T18:31:53.730Z,12.10
2023-04-18T18:34:22.004Z,9.50
2023-04-18T18:36:50.175Z,7.80
2023-04-18T18:39:17.670Z,5.57
2023-04-18T18:41:45.019Z,12.77
2023-04-18T18:44:12.223Z,6.40
2023-04-18T18:46:40.029Z,8.70
2023-04-18T18:49:09.008Z,8.63
2023-04-18T18:51:37.107Z,6.55
2023-04-18T18:54:04.463Z,12.00
2023-04-18T18:56:31.720Z,10.07
2023-04-18T18:58:59.086Z,7.38
2023-04-18T19:01:26.386Z,12.30
2023-04-18T19:03:53.721Z,6.38
2023-04-18T19:06:21.064Z,8.68
2023-04-18T19:08:48.736Z,12.13
2023-04-18T19:11:16.259Z,6.47
2023-04-18T19:13:44.326Z,7.75
2023-04-18T19:16:11.925Z,11.18
2023-04-18T19:18:40.630Z,6.68
2023-04-18T19:21:07.847Z,10.02
2023-04-18T19:23:36.131Z,10.25
2023-04-18T19:26:03.558Z,10.43
2023-04-18T19:28:30.925Z,10.77
2023-04-18T19:30:58.393Z,10.95
2023-04-18T19:33:25.696Z,13.40
2023-04-18T19:35:53.145Z,14.45
2023-04-18T19:38:20.745Z,13.13
2023-04-18T19:40:48.004Z,9.13
2023-04-18T19:43:15.386Z,8.30
2023-04-18T19:45:42.710Z,10.38
2023-04-18T19:48:10.001Z,6.72
2023-04-18T19:50:39.532Z,8.23
2023-04-18T19:53:07.013Z,9.43
2023-04-18T19:55:34.321Z,12.60
2023-04-18T19:58:01.759Z,5.88
2023-04-18T20:00:29.468Z,11.70
2023-04-18T20:02:59.144Z,7.18
2023-04-18T20:05:26.542Z,8.52
2023-04-18T20:07:54.128Z,8.32
2023-04-18T20:10:22.292Z,9.10
2023-04-18T20:12:50.219Z,8.80
2023-04-18T20:15:17.513Z,7.28
2023-04-18T20:17:44.895Z,7.30
2023-04-18T20:20:13.086Z,9.40
2023-04-18T20:22:41.852Z,11.15
2023-04-18T20:25:09.304Z,14.30
2023-04-18T20:27:36.616Z,8.10
2023-04-18T20:30:04.682Z,8.40
2023-04-18T20:32:33.542Z,10.15
2023-04-18T20:35:03.029Z,7.95
2023-04-18T20:37:30.390Z,7.15
2023-04-18T20:39:58.735Z,5.97
2023-04-18T20:42:26.041Z,7.35
2023-04-18T20:44:54.733Z,8.02
2023-04-18T20:47:22.037Z,5.70
2023-04-18T20:49:49.398Z,5.75
2023-04-18T20:52:16.623Z,10.63
2023-04-18T20:54:43.968Z,8.68
2023-04-18T20:57:11.209Z,7.35
2023-04-18T20:59:38.495Z,11.70
2023-04-18T21:02:06.936Z,4.28
2023-04-18T21:04:34.406Z,8.25
2023-04-18T21:07:01.692Z,6.35
2023-04-18T21:09:36.316Z,8.18
2023-04-18T21:12:04.161Z,11.13
2023-04-18T21:14:31.818Z,6.07
2023-04-18T21:16:59.084Z,4.47
2023-04-18T21:19:26.415Z,6.38
2023-04-18T21:21:53.792Z,6.95
2023-04-18T21:24:21.116Z,6.20
2023-04-18T21:26:48.344Z,11.98
2023-04-18T21:29:15.839Z,13.10
2023-04-18T21:31:43.077Z,6.88
2023-04-18T21:34:11.254Z,7.03
2023-04-18T21:36:40.139Z,6.63
2023-04-18T21:39:08.423Z,12.00
2023-04-18T21:41:35.882Z,11.77
2023-04-18T21:44:03.413Z,9.98
2023-04-18T21:46:31.518Z,11.23
2023-04-18T21:48:58.832Z,8.63
2023-04-18T21:51:27.482Z,4.80
2023-04-18T21:53:55.090Z,6.18
2023-04-18T21:56:22.380Z,6.43
2023-04-18T21:58:49.709Z,11.25
2023-04-18T22:01:17.067Z,9.65
2023-04-18T22:03:44.652Z,5.47
2023-04-18T22:06:12.250Z,5.63
2023-04-18T22:08:39.463Z,7.70
2023-04-18T22:11:09.183Z,5.38
2023-04-18T22:13:36.535Z,5.75
2023-04-18T22:16:04.043Z,4.78
2023-04-18T22:18:33.679Z,9.02
2023-04-18T22:21:03.327Z,7.47
2023-04-18T22:23:30.812Z,7.30
2023-04-18T22:25:58.140Z,8.65
2023-04-18T22:28:27.885Z,9.70
2023-04-18T22:30:55.541Z,9.43
2023-04-18T22:33:22.848Z,5.22
2023-04-18T22:35:50.162Z,7.80
2023-04-18T22:38:17.582Z,11.23
2023-04-18T22:40:44.816Z,12.15
2023-04-18T22:43:12.060Z,11.73
2023-04-18T22:45:39.274Z,8.25
2023-04-18T22:48:11.305Z,12.40
2023-04-18T22:50:42.510Z,8.35
2023-04-18T22:53:10.787Z,9.93
2023-04-18T22:55:41.653Z,5.53
2023-04-18T22:58:09.535Z,8.02
2023-04-18T23:00:37.138Z,9.30
2023-04-18T23:03:04.766Z,11.65
2023-04-18T23:05:32.217Z,10.27
2023-04-18T23:08:00.516Z,6.13
2023-04-18T23:10:28.102Z,7.43
2023-04-18T23:12:55.589Z,9.48
2023-04-18T23:15:23.100Z,6.45
2023-04-18T23:17:53.728Z,5.20
2023-04-18T23:20:21.173Z,7.57
2023-04-18T23:22:51.458Z,11.43
2023-04-18T23:25:19.913Z,14.37
2023-04-18T23:27:47.383Z,12.02
2023-04-18T23:30:14.836Z,13.70
2023-04-18T23:32:42.381Z,11.73
2023-04-18T23:35:10.943Z,8.75
2023-04-18T23:37:38.262Z,5.90
2023-04-18T23:40:06.724Z,8.07
2023-04-18T23:42:37.408Z,10.75
2023-04-18T23:45:05.924Z,6.45
2023-04-18T23:47:35.320Z,15.38
2023-04-18T23:50:02.820Z,9.35
2023-04-18T23:52:30.331Z,5.88
2023-04-18T23:55:01.166Z,16.70
2023-04-18T23:57:28.494Z,11.45
2023-04-18T23:59:55.832Z,9.98
